createdAt,value
2022-12-20T00:01:21.237Z,13.60
2022-12-20T00:03:53.771Z,13.60
2022-12-20T00:06:21.697Z,13.70
2022-12-20T00:08:57.270Z,13.70
2022-12-20T00:11:24.737Z,13.70
2022-12-20T00:13:51.750Z,13.70
2022-12-20T00:16:24.434Z,13.70
2022-12-20T00:18:59.687Z,13.70
2022-12-20T00:21:27.403Z,13.60
2022-12-20T00:23:55.131Z,13.60
2022-12-20T00:26:26.166Z,13.60
2022-12-20T00:28:53.655Z,13.60
2022-12-20T00:31:22.631Z,13.60
2022-12-20T00:33:51.182Z,13.60
2022-12-20T00:36:19.473Z,13.60
2022-12-20T00:38:51.162Z,13.60
2022-12-20T00:41:20.857Z,13.60
2022-12-20T00:43:48.621Z,13.60
2022-12-20T00:46:17.712Z,13.60
2022-12-20T00:48:44.895Z,13.60
2022-12-20T00:51:15.313Z,13.60
2022-12-20T00:53:42.842Z,13.60
2022-12-20T00:56:10.651Z,13.60
2022-12-20T00:58:40.280Z,13.60
2022-12-20T01:01:14.989Z,13.60
2022-12-20T01:03:42.015Z,13.60
2022-12-20T01:06:11.041Z,13.60
2022-12-20T01:08:38.161Z,13.60
2022-12-20T01:11:14.264Z,13.60
2022-12-20T01:13:43.925Z,13.60
2022-12-20T01:16:16.711Z,13.60
2022-12-20T01:18:44.237Z,13.60
2022-12-20T01:21:13.713Z,13.60
2022-12-20T01:23:40.908Z,13.60
2022-12-20T01:26:12.563Z,13.60
2022-12-20T01:28:42.405Z,13.60
2022-12-20T01:31:12.054Z,13.60
2022-12-20T01:33:39.278Z,13.60
2022-12-20T01:36:09.277Z,13.50
2022-12-20T01:38:36.175Z,13.50
2022-12-20T01:41:04.205Z,13.50
2022-12-20T01:43:52.098Z,13.50
2022-12-20T01:46:21.817Z,13.50
2022-12-20T01:49:23.828Z,13.50
2022-12-20T01:51:55.795Z,13.50
2022-12-20T01:54:28.379Z,13.50
2022-12-20T01:57:02.596Z,13.50
2022-12-20T01:59:30.800Z,13.50
2022-12-20T02:02:04.874Z,13.50
2022-12-20T02:04:31.864Z,13.50
2022-12-20T02:06:59.831Z,13.50
2022-12-20T02:09:27.371Z,13.50
2022-12-20T02:11:57.204Z,13.50
2022-12-20T02:14:32.309Z,13.50
2022-12-20T02:17:11.101Z,13.50
2022-12-20T02:20:14.915Z,13.50
2022-12-20T02:22:53.688Z,13.50
2022-12-20T02:25:43.495Z,13.50
2022-12-20T02:28:40.135Z,13.50
2022-12-20T02:31:13.034Z,13.60
2022-12-20T02:33:43.097Z,13.60
2022-12-20T02:36:09.940Z,13.50
2022-12-20T02:38:38.451Z,13.60
2022-12-20T02:41:15.076Z,13.50
2022-12-20T02:44:04.215Z,13.50
2022-12-20T02:46:32.859Z,13.50
2022-12-20T02:49:05.042Z,13.50
2022-12-20T02:51:33.469Z,13.50
2022-12-20T02:54:01.484Z,13.50
2022-12-20T02:56:30.915Z,13.50
2022-12-20T02:59:16.957Z,13.50
2022-12-20T03:01:51.597Z,13.50
2022-12-20T03:04:20.213Z,13.50
2022-12-20T03:07:04.961Z,13.50
2022-12-20T03:09:34.008Z,13.50
2022-12-20T03:12:01.221Z,13.50
2022-12-20T03:14:28.413Z,13.50
2022-12-20T03:16:55.271Z,13.60
2022-12-20T03:19:22.423Z,13.50
2022-12-20T03:21:49.316Z,13.60
2022-12-20T03:24:16.413Z,13.60
2022-12-20T03:26:43.679Z,13.60
2022-12-20T03:29:10.660Z,13.60
2022-12-20T03:31:37.923Z,13.60
2022-12-20T03:34:05.163Z,13.50
2022-12-20T03:36:32.498Z,13.50
2022-12-20T03:38:59.590Z,13.60
2022-12-20T03:41:26.506Z,13.60
2022-12-20T03:43:53.585Z,13.60
2022-12-20T03:46:20.422Z,13.60
2022-12-20T03:48:47.295Z,13.50
2022-12-20T03:51:14.255Z,13.50
2022-12-20T03:53:41.080Z,13.60
2022-12-20T03:56:08.127Z,13.60
2022-12-20T03:58:34.952Z,13.60
2022-12-20T04:01:01.881Z,13.60
2022-12-20T04:03:28.825Z,13.60
2022-12-20T04:05:55.667Z,13.60
2022-12-20T04:08:22.494Z,13.60
2022-12-20T04:11:07.989Z,13.60
2022-12-20T04:13:34.814Z,13.60
2022-12-20T04:16:01.670Z,13.60
2022-12-20T04:18:28.535Z,13.60
2022-12-20T04:20:55.487Z,13.60
2022-12-20T04:23:22.344Z,13.60
2022-12-20T04:25:49.168Z,13.60
2022-12-20T04:28:15.992Z,13.60
2022-12-20T04:30:42.859Z,13.60
2022-12-20T04:33:09.830Z,13.50
2022-12-20T04:35:37.881Z,13.50
2022-12-20T04:38:05.050Z,13.50
2022-12-20T04:40:31.893Z,13.50
2022-12-20T04:42:58.703Z,13.50
2022-12-20T04:45:25.553Z,13.50
2022-12-20T04:47:52.524Z,13.50
2022-12-20T04:50:19.336Z,13.50
2022-12-20T04:53:05.158Z,13.50
2022-12-20T04:55:36.840Z,13.50
2022-12-20T04:58:07.456Z,13.50
2022-12-20T05:00:35.485Z,13.50
2022-12-20T05:03:02.530Z,13.50
2022-12-20T05:05:29.740Z,13.50
2022-12-20T05:07:57.084Z,13.50
2022-12-20T05:10:24.087Z,13.50
2022-12-20T05:12:50.898Z,13.50
2022-12-20T05:15:17.968Z,13.50
2022-12-20T05:17:44.811Z,13.50
2022-12-20T05:20:12.308Z,13.50
2022-12-20T05:22:57.634Z,13.50
2022-12-20T05:25:43.215Z,13.50
2022-12-20T05:28:10.075Z,13.50
2022-12-20T05:30:36.994Z,13.50
2022-12-20T05:33:03.884Z,13.50
2022-12-20T05:35:30.979Z,13.50
2022-12-20T05:37:57.949Z,13.50
2022-12-20T05:40:24.808Z,13.50
2022-12-20T05:42:51.655Z,13.60
2022-12-20T05:45:18.435Z,13.50
2022-12-20T05:47:45.561Z,13.50
2022-12-20T05:50:18.663Z,13.50
2022-12-20T05:52:46.017Z,13.50
2022-12-20T05:55:13.871Z,13.50
2022-12-20T05:57:40.695Z,13.50
2022-12-20T06:00:08.458Z,13.60
2022-12-20T06:02:35.486Z,13.60
2022-12-20T06:05:02.905Z,13.60
2022-12-20T06:07:29.791Z,13.60
2022-12-20T06:09:56.869Z,13.60
2022-12-20T06:12:24.320Z,13.60
2022-12-20T06:14:51.319Z,13.60
2022-12-20T06:17:18.836Z,13.60
2022-12-20T06:19:45.837Z,13.60
2022-12-20T06:22:13.480Z,13.60
2022-12-20T06:24:46.023Z,13.60
2022-12-20T06:27:14.874Z,13.60
2022-12-20T06:29:41.790Z,13.60
2022-12-20T06:32:08.678Z,13.60
2022-12-20T06:34:35.566Z,13.60
2022-12-20T06:37:02.449Z,13.60
2022-12-20T06:39:29.246Z,13.60
2022-12-20T06:41:56.042Z,13.60
2022-12-20T06:44:22.932Z,13.60
2022-12-20T06:46:49.821Z,13.70
2022-12-20T06:49:16.696Z,13.70
2022-12-20T06:51:43.618Z,13.60
2022-12-20T06:54:10.443Z,13.70
2022-12-20T06:56:41.273Z,13.60
2022-12-20T06:59:08.734Z,13.60
2022-12-20T07:01:35.735Z,13.60
2022-12-20T07:04:02.635Z,13.60
2022-12-20T07:06:29.520Z,13.60
2022-12-20T07:08:56.610Z,13.60
2022-12-20T07:11:23.431Z,13.70
2022-12-20T07:13:54.658Z,13.70
2022-12-20T07:16:21.529Z,13.70
2022-12-20T07:18:52.620Z,13.60
2022-12-20T07:21:20.543Z,13.60
2022-12-20T07:23:47.906Z,13.60
2022-12-20T07:26:15.555Z,13.60
2022-12-20T07:28:43.008Z,13.60
2022-12-20T07:31:09.832Z,13.70
2022-12-20T07:33:37.454Z,13.70
2022-12-20T07:36:10.364Z,13.70
2022-12-20T07:38:37.623Z,13.70
2022-12-20T07:41:14.086Z,13.70
2022-12-20T07:43:41.311Z,13.70
2022-12-20T07:46:12.703Z,13.70
2022-12-20T07:48:39.675Z,13.70
2022-12-20T07:51:10.285Z,13.70
2022-12-20T07:53:42.504Z,13.70
2022-12-20T07:56:10.802Z,13.70
2022-12-20T07:58:39.311Z,13.70
2022-12-20T08:01:07.088Z,13.70
2022-12-20T08:03:58.709Z,13.70
2022-12-20T08:06:25.711Z,13.70
2022-12-20T08:08:57.787Z,13.60
2022-12-20T08:11:26.081Z,13.70
2022-12-20T08:13:57.687Z,13.70
2022-12-20T08:16:25.118Z,13.70
2022-12-20T08:18:53.087Z,13.70
2022-12-20T08:21:19.955Z,13.70
2022-12-20T08:23:46.932Z,13.70
2022-12-20T08:26:13.810Z,13.70
2022-12-20T08:28:40.642Z,13.80
2022-12-20T08:31:09.377Z,13.80
2022-12-20T08:33:38.195Z,13.80
2022-12-20T08:36:10.415Z,13.90
2022-12-20T08:38:37.654Z,13.90
2022-12-20T08:41:07.025Z,13.90
2022-12-20T08:43:34.331Z,13.90
2022-12-20T08:46:01.644Z,14.00
2022-12-20T08:48:28.826Z,14.00
2022-12-20T08:51:03.874Z,14.00
2022-12-20T08:53:31.426Z,14.10
2022-12-20T08:56:18.698Z,14.10
2022-12-20T08:58:45.973Z,14.20
2022-12-20T09:01:18.168Z,14.20
2022-12-20T09:03:46.253Z,14.20
2022-12-20T09:06:20.133Z,14.30
2022-12-20T09:08:47.529Z,14.30
2022-12-20T09:11:23.309Z,14.40
2022-12-20T09:13:52.658Z,14.40
2022-12-20T09:16:22.122Z,14.50
2022-12-20T09:18:50.991Z,14.50
2022-12-20T09:21:18.267Z,14.60
2022-12-20T09:23:45.611Z,14.60
2022-12-20T09:26:14.908Z,14.70
2022-12-20T09:28:42.546Z,14.70
2022-12-20T09:31:12.662Z,14.80
2022-12-20T09:33:39.804Z,14.80
2022-12-20T09:36:07.444Z,14.90
2022-12-20T09:38:34.398Z,15.00
2022-12-20T09:41:06.846Z,15.00
2022-12-20T09:43:34.756Z,15.10
2022-12-20T09:46:04.062Z,15.20
2022-12-20T09:48:30.936Z,15.30
2022-12-20T09:51:06.482Z,15.40
2022-12-20T09:53:55.055Z,15.50
2022-12-20T09:56:37.826Z,15.60
2022-12-20T09:59:18.047Z,15.70
2022-12-20T10:01:47.493Z,15.70
2022-12-20T10:04:27.427Z,15.80
2022-12-20T10:06:57.279Z,15.90
2022-12-20T10:09:29.863Z,16.00
2022-12-20T10:12:23.838Z,16.10
2022-12-20T10:15:16.164Z,16.20
2022-12-20T10:18:21.823Z,16.30
2022-12-20T10:21:26.300Z,16.30
2022-12-20T10:24:14.561Z,16.40
2022-12-20T10:26:41.646Z,16.40
2022-12-20T10:29:09.179Z,16.50
2022-12-20T10:31:36.476Z,16.60
2022-12-20T10:34:03.357Z,16.60
2022-12-20T10:36:35.709Z,16.70
2022-12-20T10:39:06.087Z,16.70
2022-12-20T10:41:48.973Z,16.80
2022-12-20T10:44:25.344Z,16.80
2022-12-20T10:47:00.274Z,16.90
2022-12-20T10:49:31.679Z,17.00
2022-12-20T10:52:09.601Z,17.10
2022-12-20T10:54:42.311Z,17.10
2022-12-20T10:57:21.254Z,17.10
2022-12-20T10:59:54.205Z,17.20
2022-12-20T11:02:26.744Z,17.20
2022-12-20T11:05:06.394Z,17.20
2022-12-20T11:07:34.226Z,17.20
2022-12-20T11:10:17.149Z,17.20
2022-12-20T11:12:59.035Z,17.30
2022-12-20T11:15:34.879Z,17.20
2022-12-20T11:18:19.794Z,17.30
2022-12-20T11:21:27.408Z,17.30
2022-12-20T11:24:22.740Z,17.30
2022-12-20T11:27:03.268Z,17.30
2022-12-20T11:29:41.872Z,17.30
2022-12-20T11:32:21.559Z,17.30
2022-12-20T11:35:00.254Z,17.20
2022-12-20T11:37:30.320Z,17.20
2022-12-20T11:40:29.480Z,17.20
2022-12-20T11:43:11.363Z,17.20
2022-12-20T11:46:21.529Z,17.20
2022-12-20T11:49:03.580Z,17.20
2022-12-20T11:51:56.059Z,17.20
2022-12-20T11:54:43.258Z,17.20
2022-12-20T11:57:28.059Z,17.40
2022-12-20T11:59:58.538Z,17.50
2022-12-20T12:02:43.941Z,17.80
2022-12-20T12:05:47.550Z,18.30
2022-12-20T12:08:53.039Z,18.90
2022-12-20T12:14:59.970Z,20.20
2022-12-20T12:18:03.280Z,20.70
2022-12-20T12:20:48.790Z,21.20
2022-12-20T12:23:30.771Z,21.50
2022-12-20T12:26:01.829Z,21.70
2022-12-20T12:28:28.810Z,21.90
2022-12-20T12:31:07.022Z,21.90
2022-12-20T12:33:49.407Z,21.90
2022-12-20T12:36:26.852Z,21.70
2022-12-20T12:39:12.502Z,21.70
2022-12-20T12:42:14.312Z,21.50
2022-12-20T12:44:51.956Z,21.30
2022-12-20T12:47:30.100Z,21.10
2022-12-20T12:49:57.824Z,21.00
2022-12-20T12:52:46.874Z,20.80
2022-12-20T12:55:38.549Z,20.60
2022-12-20T12:58:23.791Z,20.40
2022-12-20T13:00:57.638Z,20.20
2022-12-20T13:03:36.489Z,20.00
2022-12-20T13:06:31.204Z,19.90
2022-12-20T13:09:03.993Z,19.70
2022-12-20T13:11:46.902Z,19.50
2022-12-20T13:14:17.822Z,19.40
2022-12-20T13:17:11.649Z,19.30
2022-12-20T13:19:36.093Z,19.20
2022-12-20T13:22:12.024Z,19.10
2022-12-20T13:24:48.654Z,19.00
2022-12-20T13:27:25.992Z,18.90
2022-12-20T13:30:04.890Z,18.80
2022-12-20T13:33:02.940Z,18.80
2022-12-20T13:35:32.757Z,18.70
2022-12-20T13:38:07.001Z,18.60
2022-12-20T13:40:41.083Z,18.60
2022-12-20T13:43:28.095Z,18.50
2022-12-20T13:46:18.828Z,18.40
2022-12-20T13:48:57.806Z,18.30
2022-12-20T13:51:26.847Z,18.30
2022-12-20T13:53:59.276Z,18.30
2022-12-20T13:56:29.066Z,18.20
2022-12-20T13:58:57.698Z,18.20
2022-12-20T14:01:26.312Z,18.10
2022-12-20T14:03:53.875Z,18.00
2022-12-20T14:06:26.858Z,18.00
2022-12-20T14:08:54.641Z,17.90
2022-12-20T14:11:27.099Z,17.90
2022-12-20T14:14:02.307Z,17.90
2022-12-20T14:16:32.300Z,17.80
2022-12-20T14:19:04.050Z,17.80
2022-12-20T14:21:31.903Z,17.80
2022-12-20T14:24:00.890Z,17.80
2022-12-20T14:26:30.924Z,17.70
2022-12-20T14:29:01.789Z,17.70
2022-12-20T14:31:34.592Z,17.70
2022-12-20T14:34:34.137Z,17.60
2022-12-20T14:37:41.325Z,17.60
2022-12-20T14:40:11.272Z,17.50
2022-12-20T14:42:39.957Z,17.50
2022-12-20T14:45:09.876Z,17.50
2022-12-20T14:47:38.576Z,17.40
2022-12-20T14:50:18.157Z,17.40
2022-12-20T14:52:45.832Z,17.30
2022-12-20T14:55:20.868Z,17.30
2022-12-20T14:57:52.070Z,17.30
2022-12-20T15:00:18.936Z,17.30
2022-12-20T15:02:46.106Z,17.30
2022-12-20T15:05:38.861Z,17.20
2022-12-20T15:08:29.823Z,17.20
2022-12-20T15:10:56.734Z,17.10
2022-12-20T15:13:52.662Z,17.10
2022-12-20T15:16:25.391Z,17.00
2022-12-20T15:18:55.652Z,17.00
2022-12-20T15:21:22.453Z,16.90
2022-12-20T15:23:51.689Z,16.90
2022-12-20T15:26:21.743Z,16.80
2022-12-20T15:28:48.816Z,16.80
2022-12-20T15:31:18.404Z,16.80
2022-12-20T15:33:46.053Z,16.70
2022-12-20T15:36:19.071Z,16.70
2022-12-20T15:39:11.385Z,16.70
2022-12-20T15:41:34.826Z,16.70
2022-12-20T15:44:11.239Z,16.60
2022-12-20T15:46:38.135Z,16.60
2022-12-20T15:49:05.094Z,16.50
2022-12-20T15:51:34.883Z,16.50
2022-12-20T15:54:07.579Z,16.50
2022-12-20T15:56:34.477Z,16.50
2022-12-20T15:59:05.470Z,16.40
2022-12-20T16:01:45.137Z,16.40
2022-12-20T16:04:18.356Z,16.40
2022-12-20T16:06:47.048Z,16.40
2022-12-20T16:09:14.467Z,16.40
2022-12-20T16:11:41.961Z,16.30
2022-12-20T16:14:21.261Z,16.30
2022-12-20T16:16:51.498Z,16.30
2022-12-20T16:19:19.328Z,16.30
2022-12-20T16:21:48.698Z,16.30
2022-12-20T16:24:18.413Z,16.30
2022-12-20T16:26:45.761Z,16.30
2022-12-20T16:29:12.982Z,16.30
2022-12-20T16:32:19.327Z,16.30
2022-12-20T16:38:33.623Z,16.30
2022-12-20T16:41:14.593Z,16.30
2022-12-20T16:43:41.999Z,16.30
2022-12-20T16:46:13.814Z,16.30
2022-12-20T16:48:41.847Z,16.30
2022-12-20T16:51:20.650Z,16.30
2022-12-20T16:54:17.196Z,16.40
2022-12-20T16:56:35.612Z,16.40
2022-12-20T16:59:20.607Z,16.40
2022-12-20T17:01:51.654Z,16.40
2022-12-20T17:04:19.992Z,16.40
2022-12-20T17:06:47.017Z,16.40
2022-12-20T17:09:14.303Z,16.40
2022-12-20T17:11:41.241Z,16.40
2022-12-20T17:14:12.578Z,16.40
2022-12-20T17:16:41.091Z,16.30
2022-12-20T17:19:09.056Z,16.30
2022-12-20T17:24:25.623Z,16.30
2022-12-20T17:26:53.381Z,16.30
2022-12-20T17:29:20.601Z,16.20
2022-12-20T17:31:48.386Z,16.30
2022-12-20T17:34:19.934Z,16.30
2022-12-20T17:36:47.913Z,16.30
2022-12-20T17:39:15.540Z,16.30
2022-12-20T17:41:43.295Z,16.30
2022-12-20T17:44:23.651Z,16.30
2022-12-20T17:46:50.934Z,16.30
2022-12-20T17:49:18.215Z,16.30
2022-12-20T17:51:46.395Z,16.30
2022-12-20T17:54:21.941Z,16.30
2022-12-20T17:56:51.944Z,16.30
2022-12-20T17:59:18.810Z,16.30
2022-12-20T18:01:47.065Z,16.30
2022-12-20T18:04:16.136Z,16.30
2022-12-20T18:06:45.408Z,16.20
2022-12-20T18:09:18.721Z,16.20
2022-12-20T18:11:46.204Z,16.20
2022-12-20T18:14:13.713Z,16.20
2022-12-20T18:16:40.988Z,16.20
2022-12-20T18:19:14.487Z,16.30
2022-12-20T18:21:41.851Z,16.20
2022-12-20T18:24:13.166Z,16.20
2022-12-20T18:26:40.245Z,16.20
2022-12-20T18:29:07.367Z,16.30
2022-12-20T18:31:35.021Z,16.20
2022-12-20T18:34:02.780Z,16.20
2022-12-20T18:36:32.364Z,16.20
2022-12-20T18:39:00.535Z,16.20
2022-12-20T18:41:30.193Z,16.20
2022-12-20T18:43:59.928Z,16.20
2022-12-20T18:46:27.219Z,16.10
2022-12-20T18:48:56.615Z,16.10
2022-12-20T18:51:26.122Z,16.00
2022-12-20T18:53:56.483Z,16.00
2022-12-20T18:56:29.291Z,15.90
2022-12-20T18:58:57.958Z,15.90
2022-12-20T19:01:27.917Z,15.90
2022-12-20T19:03:55.728Z,15.80
2022-12-20T19:06:23.354Z,15.90
2022-12-20T19:08:50.364Z,15.80
2022-12-20T19:11:21.575Z,15.80
2022-12-20T19:13:49.296Z,15.80
2022-12-20T19:16:21.492Z,15.70
2022-12-20T19:18:49.309Z,15.70
2022-12-20T19:21:22.109Z,15.80
2022-12-20T19:23:51.564Z,15.70
2022-12-20T19:26:20.173Z,15.70
2022-12-20T19:28:47.357Z,15.70
2022-12-20T19:31:22.280Z,15.70
2022-12-20T19:33:58.236Z,15.70
2022-12-20T19:36:40.944Z,15.60
2022-12-20T19:39:16.618Z,15.60
2022-12-20T19:41:50.621Z,15.60
2022-12-20T19:44:27.104Z,15.60
2022-12-20T19:46:54.009Z,15.60
2022-12-20T19:49:21.020Z,15.70
2022-12-20T19:51:49.120Z,15.60
2022-12-20T19:54:15.988Z,15.60
2022-12-20T19:56:42.940Z,15.70
2022-12-20T19:59:11.871Z,15.70
2022-12-20T20:01:38.941Z,15.70
2022-12-20T20:04:06.353Z,15.70
2022-12-20T20:06:33.282Z,15.70
2022-12-20T20:09:00.123Z,15.70
2022-12-20T20:11:27.912Z,15.70
2022-12-20T20:13:55.506Z,15.70
2022-12-20T20:16:23.153Z,15.80
2022-12-20T20:18:51.088Z,15.80
2022-12-20T20:21:22.642Z,15.80
2022-12-20T20:23:51.768Z,15.80
2022-12-20T20:26:25.082Z,15.80
2022-12-20T20:28:52.658Z,15.80
2022-12-20T20:31:20.894Z,15.80
2022-12-20T20:33:48.241Z,15.80
2022-12-20T20:36:18.616Z,15.80
2022-12-20T20:38:45.915Z,15.80
2022-12-20T20:41:15.055Z,15.80
2022-12-20T20:43:42.909Z,15.80
2022-12-20T20:46:13.002Z,15.80
2022-12-20T20:48:40.908Z,15.70
2022-12-20T20:51:08.014Z,15.80
2022-12-20T20:53:35.496Z,15.70
2022-12-20T20:56:03.914Z,15.80
2022-12-20T20:58:31.267Z,15.80
2022-12-20T21:00:59.984Z,15.80
2022-12-20T21:03:28.396Z,15.80
2022-12-20T21:08:42.189Z,15.90
2022-12-20T21:11:09.644Z,15.90
2022-12-20T21:13:36.862Z,15.90
2022-12-20T21:16:16.232Z,15.90
2022-12-20T21:18:43.250Z,15.90
2022-12-20T21:21:11.936Z,15.90
2022-12-20T21:23:39.594Z,15.90
2022-12-20T21:26:07.690Z,15.90
2022-12-20T21:28:35.656Z,15.80
2022-12-20T21:31:06.064Z,15.80
2022-12-20T21:33:33.048Z,15.80
2022-12-20T21:36:21.472Z,15.80
2022-12-20T21:38:50.467Z,15.80
2022-12-20T21:41:18.345Z,15.70
2022-12-20T21:43:45.308Z,15.80
2022-12-20T21:46:12.396Z,15.70
2022-12-20T21:48:40.875Z,15.80
2022-12-20T21:51:10.483Z,15.70
2022-12-20T21:53:46.121Z,15.70
2022-12-20T21:56:13.880Z,15.70
2022-12-20T21:58:40.685Z,15.70
2022-12-20T22:01:08.379Z,15.70
2022-12-20T22:03:36.889Z,15.70
2022-12-20T22:06:05.053Z,15.70
2022-12-20T22:08:32.709Z,15.70
2022-12-20T22:11:00.308Z,15.70
2022-12-20T22:13:34.398Z,15.70
2022-12-20T22:16:19.709Z,15.70
2022-12-20T22:18:49.929Z,15.70
2022-12-20T22:21:17.742Z,15.70
2022-12-20T22:23:44.812Z,15.70
2022-12-20T22:26:14.010Z,15.70
2022-12-20T22:28:47.053Z,15.70
2022-12-20T22:31:14.518Z,15.70
2022-12-20T22:33:41.771Z,15.70
2022-12-20T22:36:10.670Z,15.70
2022-12-20T22:38:37.596Z,15.70
2022-12-20T22:41:12.135Z,15.80
2022-12-20T22:43:39.540Z,15.70
2022-12-20T22:46:06.837Z,15.80
2022-12-20T22:48:33.966Z,15.80
2022-12-20T22:51:01.645Z,15.80
2022-12-20T22:53:28.494Z,15.80
2022-12-20T22:55:55.552Z,15.80
2022-12-20T22:58:23.544Z,15.80
2022-12-20T23:00:50.331Z,15.80
2022-12-20T23:03:17.270Z,15.70
2022-12-20T23:05:55.309Z,15.70
2022-12-20T23:08:22.943Z,15.70
2022-12-20T23:11:08.284Z,15.70
2022-12-20T23:13:53.776Z,15.60
2022-12-20T23:16:20.705Z,15.60
2022-12-20T23:18:47.520Z,15.60
2022-12-20T23:21:32.814Z,15.50
2022-12-20T23:23:59.590Z,15.40
2022-12-20T23:26:26.527Z,15.40
2022-12-20T23:28:53.341Z,15.40
2022-12-20T23:31:20.227Z,15.30
2022-12-20T23:33:47.080Z,15.30
2022-12-20T23:36:13.931Z,15.20
2022-12-20T23:38:40.705Z,15.10
2022-12-20T23:41:12.463Z,15.10
2022-12-20T23:43:39.621Z,15.00
2022-12-20T23:46:09.729Z,15.00
2022-12-20T23:48:36.670Z,14.90
2022-12-20T23:51:03.938Z,14.90
2022-12-20T23:53:30.752Z,14.80
2022-12-20T23:56:10.128Z,14.80
2022-12-20T23:58:38.045Z,14.70
